METAR Data
IDs: Format: Raw Decoded Include TAF

Data at: 1354 UTC 21 Apr 2021

METAR for:KEOK (Keokuk Muni, IA, US)
Text:KEOK 211335Z AUTO 28004KT 10SM FEW075 03/M04 A3020 RMK AO2
Temperature: 3.0°C ( 37°F)
Dewpoint: -4.0°C ( 25°F) [RH = 60%]
Pressure (altimeter):30.20 inches Hg (1022.8 mb)
Winds:from the W (280 degrees) at 5 MPH (4 knots; 2.1 m/s)
Visibility:10 or more sm (16+ km)
Ceiling:at least 12,000 feet AGL
Clouds: few clouds at 7500 feet AGL
QC Flag:automated observation with no human augmentation